Time;durP1;ratioP1;P1;durP2;ratioP2;P2;SDS_P1;SDS_P2;PMS_P1;PMS_P2;Temp;Humidity;BMP_temperature;BMP_pressure;BME280_temperature;BME280_humidity;BME280_pressure;Samples;Min_cycle;Max_cycle;Signal;HPM_P1;HPM_P2
2021/01/04 00:00:25;;;;;;;21.73;11.50;;;4.20;99.90;;;;;;4976845;28;20046;-85
2021/01/04 00:03:36;;;;;;;17.73;9.77;;;4.20;99.90;;;;;;4959253;28;20062;-85
2021/01/04 00:06:23;;;;;;;17.80;9.85;;;4.20;99.90;;;;;;4927545;28;20035;-85
2021/01/04 00:09:10;;;;;;;14.43;8.73;;;4.20;99.90;;;;;;4960403;28;20136;-86
2021/01/04 00:11:50;;;;;;;19.25;10.10;;;4.20;99.90;;;;;;4976942;28;20031;-87
2021/01/04 00:14:30;;;;;;;16.35;9.23;;;4.20;99.90;;;;;;4976957;28;20066;-85
2021/01/04 00:17:03;;;;;;;18.00;9.20;;;4.20;99.90;;;;;;4959549;28;20042;-85
2021/01/04 00:19:32;;;;;;;20.67;10.57;;;4.10;99.90;;;;;;4959541;28;20070;-85
2021/01/04 00:22:24;;;;;;;21.77;10.18;;;4.10;99.90;;;;;;4958875;28;20126;-85
2021/01/04 00:24:59;;;;;;;19.73;10.13;;;4.10;99.90;;;;;;4956241;28;20042;-85
2021/01/04 00:27:28;;;;;;;22.25;9.55;;;4.10;99.90;;;;;;4981647;28;20106;-85
2021/01/04 00:30:07;;;;;;;21.42;9.00;;;4.20;99.90;;;;;;4966532;28;20023;-86
2021/01/04 00:32:35;;;;;;;17.45;10.00;;;4.20;99.90;;;;;;4991500;28;20043;-85
2021/01/04 00:35:11;;;;;;;18.48;10.35;;;4.20;99.90;;;;;;4943146;28;20039;-85
2021/01/04 00:37:51;;;;;;;18.10;8.95;;;4.20;99.90;;;;;;4958981;28;20095;-88
2021/01/04 00:40:34;;;;;;;19.08;10.60;;;4.20;99.90;;;;;;4959160;28;20469;-85
2021/01/04 00:43:03;;;;;;;18.95;9.38;;;4.20;99.90;;;;;;4958645;28;20030;-85
2021/01/04 00:45:43;;;;;;;15.05;9.10;;;4.20;99.90;;;;;;4974919;28;20066;-85
2021/01/04 00:48:24;;;;;;;15.55;8.70;;;4.20;99.90;;;;;;4959174;28;20106;-85
2021/01/04 00:50:56;;;;;;;19.30;9.00;;;4.20;99.90;;;;;;4976103;28;20085;-85
2021/01/04 00:53:30;;;;;;;18.85;10.02;;;4.20;99.90;;;;;;4959163;28;20035;-85
2021/01/04 00:56:18;;;;;;;19.23;9.25;;;4.20;99.90;;;;;;4961911;28;20061;-85
2021/01/04 00:58:47;;;;;;;13.23;9.02;;;4.10;99.90;;;;;;4958801;28;20389;-85
2021/01/04 01:01:35;;;;;;;19.02;9.07;;;4.20;99.90;;;;;;4959414;28;20048;-85
2021/01/04 01:04:29;;;;;;;21.63;10.40;;;4.10;99.90;;;;;;4959304;28;20042;-85
2021/01/04 01:07:03;;;;;;;16.92;9.65;;;4.10;99.90;;;;;;4950738;28;20062;-85
2021/01/04 01:09:34;;;;;;;20.50;11.02;;;4.20;99.90;;;;;;4960690;28;20031;-85
2021/01/04 01:12:15;;;;;;;16.70;8.98;;;4.10;99.90;;;;;;4958533;28;20031;-85
2021/01/04 01:14:42;;;;;;;19.90;10.57;;;4.10;99.90;;;;;;4960607;28;20026;-86
2021/01/04 01:17:29;;;;;;;22.50;10.63;;;4.10;99.90;;;;;;4965888;28;20126;-85
2021/01/04 01:19:57;;;;;;;24.40;10.13;;;4.10;99.90;;;;;;4965402;28;20117;-85
2021/01/04 01:22:38;;;;;;;19.05;9.77;;;4.00;99.90;;;;;;4961405;28;20034;-84
2021/01/04 01:25:12;;;;;;;15.63;9.15;;;4.10;99.90;;;;;;4957945;28;20023;-84
2021/01/04 01:27:59;;;;;;;18.40;9.65;;;4.00;99.90;;;;;;4958042;28;20043;-85
2021/01/04 01:30:52;;;;;;;15.75;9.20;;;4.00;99.90;;;;;;4975404;28;20038;-84
2021/01/04 01:33:34;;;;;;;15.50;8.55;;;4.00;99.90;;;;;;4957600;28;20121;-85
2021/01/04 01:36:16;;;;;;;15.52;9.10;;;4.10;99.90;;;;;;4957710;28;20042;-85
2021/01/04 01:39:14;;;;;;;17.10;9.07;;;4.10;99.90;;;;;;4957871;28;20026;-85
2021/01/04 01:42:17;;;;;;;19.27;8.98;;;4.00;99.90;;;;;;4949853;28;20030;-84
2021/01/04 01:44:42;;;;;;;14.85;8.88;;;4.00;99.90;;;;;;4957740;28;20037;-85
2021/01/04 01:47:14;;;;;;;21.42;8.90;;;4.10;99.90;;;;;;4957435;28;20052;-85
2021/01/04 01:50:03;;;;;;;16.80;9.18;;;4.10;99.90;;;;;;4957677;28;20026;-84
2021/01/04 01:52:53;;;;;;;17.25;9.05;;;4.10;99.90;;;;;;4957235;28;20081;-85
2021/01/04 01:55:34;;;;;;;18.23;9.63;;;4.00;99.90;;;;;;4957720;28;20028;-85
2021/01/04 01:58:11;;;;;;;15.85;9.02;;;4.00;99.90;;;;;;4957410;28;20031;-85
2021/01/04 02:01:06;;;;;;;17.30;8.77;;;4.00;99.90;;;;;;4957635;28;20031;-84
2021/01/04 02:03:45;;;;;;;16.15;9.15;;;4.00;99.90;;;;;;4957480;28;20070;-83
2021/01/04 02:06:28;;;;;;;16.20;9.27;;;4.00;99.90;;;;;;4957284;28;20030;-83
2021/01/04 02:09:04;;;;;;;23.85;9.57;;;4.00;99.90;;;;;;4958083;28;20067;-83
2021/01/04 02:11:48;;;;;;;18.95;10.55;;;4.00;99.90;;;;;;4957342;28;20031;-83
2021/01/04 02:14:29;;;;;;;14.18;9.25;;;4.00;99.90;;;;;;4957618;28;20539;-87
2021/01/04 02:17:02;;;;;;;15.45;9.27;;;4.00;99.90;;;;;;4957047;28;20126;-83
2021/01/04 02:19:41;;;;;;;15.75;9.25;;;4.00;99.90;;;;;;4957567;28;20122;-85
2021/01/04 02:22:48;;;;;;;15.85;9.07;;;4.00;99.90;;;;;;4957128;28;20023;-83
2021/01/04 02:25:14;;;;;;;16.15;9.82;;;3.90;99.90;;;;;;4956611;28;20054;-85
2021/01/04 02:27:48;;;;;;;17.55;10.90;;;3.90;99.90;;;;;;4973064;28;20062;-84
2021/01/04 02:30:14;;;;;;;15.43;8.68;;;3.90;99.90;;;;;;4957002;28;20097;-83
2021/01/04 02:32:40;;;;;;;14.40;8.48;;;3.90;99.90;;;;;;4973239;28;20039;-84
2021/01/04 02:35:07;;;;;;;13.45;7.93;;;3.90;99.90;;;;;;4956925;28;20031;-84
2021/01/04 02:37:33;;;;;;;14.85;8.40;;;3.90;99.90;;;;;;4956656;28;20050;-83
2021/01/04 02:40:08;;;;;;;14.73;9.23;;;3.90;99.90;;;;;;4957077;28;20031;-85
2021/01/04 02:42:38;;;;;;;17.52;10.15;;;3.90;99.90;;;;;;4956861;28;20105;-85
2021/01/04 02:45:08;;;;;;;14.68;9.15;;;3.90;99.90;;;;;;4956794;28;20027;-86
2021/01/04 02:48:22;;;;;;;16.45;8.93;;;3.90;99.90;;;;;;4956915;28;20030;-84
2021/01/04 02:50:56;;;;;;;15.07;8.98;;;3.90;99.90;;;;;;4898693;29;20504;-83
2021/01/04 02:53:36;;;;;;;17.38;9.43;;;4.00;99.90;;;;;;4914385;29;20032;-84
2021/01/04 02:56:04;;;;;;;13.40;10.18;;;3.90;99.90;;;;;;4950396;28;20062;-83
2021/01/04 02:59:04;;;;;;;16.67;9.05;;;3.90;99.90;;;;;;4956973;28;20134;-83
2021/01/04 03:01:54;;;;;;;13.13;8.93;;;3.90;99.90;;;;;;4960161;28;20122;-82
2021/01/04 03:04:22;;;;;;;14.43;8.20;;;3.90;99.90;;;;;;4977740;28;20030;-82
2021/01/04 03:06:54;;;;;;;13.35;9.90;;;3.90;99.90;;;;;;4958158;28;20361;-83
2021/01/04 03:09:20;;;;;;;18.83;9.88;;;4.00;99.90;;;;;;4957037;28;20042;-84
2021/01/04 03:11:45;;;;;;;18.15;10.88;;;4.00;99.90;;;;;;4957200;28;20045;-84
2021/01/04 03:14:20;;;;;;;15.95;9.13;;;4.00;99.90;;;;;;4956636;28;20027;-84
2021/01/04 03:17:16;;;;;;;14.98;9.77;;;4.00;99.90;;;;;;4973824;28;20036;-84
2021/01/04 03:19:45;;;;;;;18.35;9.52;;;4.00;99.90;;;;;;4958608;28;20101;-83
2021/01/04 03:22:14;;;;;;;24.00;10.18;;;4.00;99.90;;;;;;4960424;28;20094;-84
2021/01/04 03:24:45;;;;;;;19.98;10.27;;;4.00;99.90;;;;;;4960160;28;20081;-83
2021/01/04 03:27:15;;;;;;;19.35;9.95;;;3.90;99.90;;;;;;4960078;28;20423;-84
2021/01/04 03:29:41;;;;;;;15.55;10.30;;;4.00;99.90;;;;;;4960185;28;20034;-84
2021/01/04 03:32:07;;;;;;;20.67;10.40;;;4.00;99.90;;;;;;4959761;28;20031;-84
2021/01/04 03:34:33;;;;;;;18.58;9.25;;;4.00;99.90;;;;;;4960059;28;20047;-84
2021/01/04 03:36:58;;;;;;;26.10;11.07;;;4.00;99.90;;;;;;4928058;28;20034;-84
2021/01/04 03:39:28;;;;;;;17.27;10.07;;;4.00;99.90;;;;;;4959941;28;20062;-84
2021/01/04 03:41:59;;;;;;;26.35;10.52;;;4.10;99.90;;;;;;4944496;28;20023;-84
2021/01/04 03:44:27;;;;;;;17.25;9.57;;;4.10;99.90;;;;;;4959881;28;20567;-83
2021/01/04 03:46:53;;;;;;;16.63;10.45;;;4.10;99.90;;;;;;4960084;28;20023;-83
2021/01/04 03:49:19;;;;;;;20.02;10.40;;;4.10;99.90;;;;;;4959698;28;20035;-84
2021/01/04 03:51:56;;;;;;;14.55;9.30;;;4.00;99.90;;;;;;4959608;28;20054;-84
2021/01/04 03:54:23;;;;;;;18.58;10.32;;;4.10;99.90;;;;;;4977137;28;20023;-83
2021/01/04 03:56:48;;;;;;;13.02;8.48;;;4.10;99.90;;;;;;4959708;28;20041;-85
2021/01/04 03:59:14;;;;;;;15.18;9.63;;;4.10;99.90;;;;;;4959453;28;20026;-83
2021/01/04 04:01:47;;;;;;;18.70;9.35;;;4.00;99.90;;;;;;4959381;28;20034;-84
2021/01/04 04:04:13;;;;;;;16.52;9.77;;;4.00;99.90;;;;;;4959682;28;20108;-84
2021/01/04 04:06:39;;;;;;;17.48;10.13;;;4.00;99.90;;;;;;4943925;28;20035;-83
2021/01/04 04:09:04;;;;;;;17.33;9.88;;;4.00;99.90;;;;;;4960328;28;20069;-84
2021/01/04 04:11:30;;;;;;;13.48;9.45;;;4.00;99.90;;;;;;4945467;28;20030;-84
2021/01/04 04:13:55;;;;;;;17.45;10.48;;;4.00;99.90;;;;;;4977304;28;20031;-83
2021/01/04 04:16:21;;;;;;;17.48;9.38;;;4.00;99.90;;;;;;4945324;28;20389;-83
2021/01/04 04:18:47;;;;;;;16.38;10.13;;;4.00;99.90;;;;;;4961544;28;20035;-84
2021/01/04 04:21:14;;;;;;;19.58;10.02;;;4.00;99.90;;;;;;4946903;28;20046;-84
2021/01/04 04:23:40;;;;;;;14.15;9.57;;;4.00;99.90;;;;;;4945675;28;20477;-84
2021/01/04 04:26:06;;;;;;;15.32;9.32;;;4.00;99.90;;;;;;4960288;28;20057;-85
2021/01/04 04:28:32;;;;;;;16.00;9.55;;;3.90;99.90;;;;;;4960481;28;20030;-84
2021/01/04 04:30:58;;;;;;;17.38;9.95;;;4.00;99.90;;;;;;4960572;28;20335;-84
2021/01/04 04:33:23;;;;;;;17.88;9.60;;;4.00;99.90;;;;;;4943871;28;20054;-84
2021/01/04 04:35:51;;;;;;;18.17;9.63;;;4.00;99.90;;;;;;4959173;28;20388;-83
2021/01/04 04:38:16;;;;;;;18.50;9.65;;;4.00;99.90;;;;;;4975789;28;20406;-84
2021/01/04 04:40:48;;;;;;;16.70;9.30;;;4.00;99.90;;;;;;4958859;28;20116;-84
2021/01/04 04:43:30;;;;;;;15.88;9.13;;;3.90;99.90;;;;;;4980821;28;20026;-83
2021/01/04 04:45:57;;;;;;;18.98;9.30;;;4.00;99.90;;;;;;4958915;28;20106;-84
2021/01/04 04:48:53;;;;;;;14.15;8.73;;;4.00;99.90;;;;;;4975855;28;20522;-83
2021/01/04 04:51:43;;;;;;;16.45;9.35;;;4.00;99.90;;;;;;4976114;28;20101;-84
2021/01/04 04:54:41;;;;;;;16.38;9.50;;;3.90;99.90;;;;;;4958616;28;20027;-83
2021/01/04 04:57:20;;;;;;;19.58;9.95;;;3.90;99.90;;;;;;4958571;28;20034;-84
2021/01/04 04:59:51;;;;;;;14.50;8.82;;;3.90;99.90;;;;;;4958769;28;20038;-84
2021/01/04 05:02:30;;;;;;;15.10;9.27;;;4.00;99.90;;;;;;4958509;28;20445;-83
2021/01/04 05:05:21;;;;;;;18.45;10.23;;;4.00;99.90;;;;;;4975927;28;20110;-83
2021/01/04 05:08:38;;;;;;;16.33;8.80;;;3.90;99.90;;;;;;4975499;28;20442;-83
2021/01/04 05:11:05;;;;;;;20.45;10.15;;;3.80;99.90;;;;;;4933948;28;20377;-83
2021/01/04 05:13:38;;;;;;;19.08;9.15;;;3.90;99.90;;;;;;4942589;28;20089;-83
2021/01/04 05:16:14;;;;;;;20.00;10.35;;;3.90;99.90;;;;;;4975605;28;20049;-84
2021/01/04 05:18:45;;;;;;;19.80;9.13;;;4.00;99.90;;;;;;4958243;28;20082;-84
2021/01/04 05:21:33;;;;;;;16.15;8.90;;;4.00;99.90;;;;;;4958573;28;20061;-84
2021/01/04 05:24:20;;;;;;;17.50;10.00;;;4.00;99.90;;;;;;4958582;28;20031;-84
2021/01/04 05:26:52;;;;;;;21.42;10.13;;;4.00;99.90;;;;;;4958253;28;20055;-84
2021/01/04 05:29:30;;;;;;;18.45;9.68;;;4.00;99.90;;;;;;4958253;28;20054;-83
2021/01/04 05:32:28;;;;;;;17.02;10.00;;;4.00;99.90;;;;;;4958507;28;20404;-83
2021/01/04 05:34:58;;;;;;;22.63;10.73;;;4.00;99.90;;;;;;4959152;28;20035;-83
2021/01/04 05:37:48;;;;;;;20.35;10.63;;;4.00;99.90;;;;;;4958973;28;20166;-84
2021/01/04 05:40:23;;;;;;;22.52;11.02;;;4.00;99.90;;;;;;4968142;28;20034;-83
2021/01/04 05:42:48;;;;;;;;;;;4.00;99.90;;;;;;4967910;28;20027;-82
2021/01/04 05:45:24;;;;;;;17.67;10.40;;;4.00;99.90;;;;;;4962708;28;19913;-83
2021/01/04 05:48:05;;;;;;;24.92;10.30;;;4.00;99.90;;;;;;4976890;28;20050;-83
2021/01/04 05:50:47;;;;;;;15.32;9.50;;;3.90;99.90;;;;;;4976550;28;20070;-84
2021/01/04 05:53:13;;;;;;;17.02;9.60;;;4.00;99.90;;;;;;4958801;28;20481;-84
2021/01/04 05:55:38;;;;;;;20.08;9.90;;;4.00;99.90;;;;;;4957984;28;20045;-83
2021/01/04 05:58:18;;;;;;;21.30;9.32;;;4.00;99.90;;;;;;4957970;28;20058;-83
2021/01/04 06:00:45;;;;;;;21.27;10.25;;;4.00;99.90;;;;;;4941439;28;20484;-85
2021/01/04 06:03:22;;;;;;;18.83;9.95;;;4.10;99.90;;;;;;4957659;28;20097;-85
2021/01/04 06:05:53;;;;;;;18.95;9.88;;;4.00;99.90;;;;;;4957862;28;20026;-84
2021/01/04 06:08:27;;;;;;;15.45;10.20;;;4.10;99.90;;;;;;4974782;28;20023;-84
2021/01/04 06:11:14;;;;;;;19.60;10.23;;;4.10;99.90;;;;;;4974810;28;20037;-84
2021/01/04 06:13:45;;;;;;;21.75;9.63;;;4.10;99.90;;;;;;4974423;28;20039;-84
2021/01/04 06:16:16;;;;;;;17.05;9.32;;;4.00;99.90;;;;;;4941367;28;20031;-83
2021/01/04 06:18:52;;;;;;;15.23;9.45;;;4.10;99.90;;;;;;4957281;28;20027;-85
2021/01/04 06:21:42;;;;;;;18.70;8.65;;;4.10;99.90;;;;;;4974505;28;20030;-85
2021/01/04 06:24:10;;;;;;;15.23;9.02;;;4.10;99.90;;;;;;4957181;28;20033;-85
2021/01/04 06:26:47;;;;;;;19.65;8.77;;;4.10;99.90;;;;;;4956903;28;20126;-83
2021/01/04 06:29:13;;;;;;;14.98;7.90;;;4.10;99.90;;;;;;4957418;28;20030;-84
2021/01/04 06:31:42;;;;;;;14.80;7.78;;;4.10;99.90;;;;;;4959459;28;20118;-84
2021/01/04 06:34:31;;;;;;;18.20;7.53;;;4.10;99.90;;;;;;4963308;28;20046;-84
2021/01/04 06:37:18;;;;;;;14.05;7.70;;;4.10;99.90;;;;;;4963930;28;20034;-84
2021/01/04 06:39:50;;;;;;;13.52;7.57;;;4.10;99.90;;;;;;4976662;28;20033;-85
2021/01/04 06:42:21;;;;;;;19.05;8.48;;;4.10;99.90;;;;;;4974098;28;20027;-86
2021/01/04 06:45:08;;;;;;;12.63;7.45;;;4.10;99.90;;;;;;4958003;28;20034;-84
2021/01/04 06:48:01;;;;;;;13.77;7.65;;;4.10;99.90;;;;;;4974078;28;20023;-84
2021/01/04 06:50:37;;;;;;;16.38;8.02;;;4.20;99.90;;;;;;4956897;28;20057;-84
2021/01/04 06:53:24;;;;;;;15.88;7.72;;;4.20;99.90;;;;;;4957107;28;20031;-84
2021/01/04 06:55:53;;;;;;;17.48;8.75;;;4.20;99.90;;;;;;4960452;28;20461;-84
2021/01/04 06:58:37;;;;;;;16.17;8.32;;;4.20;99.90;;;;;;4960614;28;20023;-85
2021/01/04 07:01:12;;;;;;;15.02;7.47;;;4.20;99.90;;;;;;4960671;28;20034;-84
2021/01/04 07:03:54;;;;;;;16.30;8.43;;;4.20;99.90;;;;;;4960646;28;20058;-84
2021/01/04 07:06:31;;;;;;;13.40;7.82;;;4.20;99.90;;;;;;4960561;28;20026;-84
2021/01/04 07:09:18;;;;;;;17.15;8.38;;;4.20;99.90;;;;;;4960853;28;20030;-84
2021/01/04 07:11:58;;;;;;;22.30;9.02;;;4.20;99.90;;;;;;4960805;28;20027;-84
2021/01/04 07:14:36;;;;;;;21.10;9.18;;;4.20;99.90;;;;;;4960780;28;20031;-83
2021/01/04 07:17:25;;;;;;;13.50;7.80;;;4.20;99.90;;;;;;4960676;28;20476;-83
2021/01/04 07:20:12;;;;;;;16.45;9.80;;;4.20;99.90;;;;;;4960857;28;20092;-84
2021/01/04 07:22:59;;;;;;;17.20;8.60;;;4.20;99.90;;;;;;4960167;28;20030;-85
2021/01/04 07:25:46;;;;;;;18.45;8.65;;;4.10;99.90;;;;;;4959826;28;20487;-84
2021/01/04 07:28:29;;;;;;;18.80;9.63;;;4.10;99.90;;;;;;4960758;28;20110;-84
2021/01/04 07:31:04;;;;;;;15.20;8.45;;;4.20;99.90;;;;;;4980229;28;20037;-84
2021/01/04 07:33:40;;;;;;;14.20;8.52;;;4.10;99.90;;;;;;4963265;28;20440;-83
2021/01/04 07:36:27;;;;;;;13.20;8.48;;;4.10;99.90;;;;;;4960228;28;20389;-84
2021/01/04 07:39:06;;;;;;;17.17;8.35;;;4.10;99.90;;;;;;4960603;28;20420;-84
2021/01/04 07:42:00;;;;;;;20.35;9.20;;;4.20;99.90;;;;;;4960021;28;20082;-84
2021/01/04 07:44:35;;;;;;;15.27;8.40;;;4.10;99.90;;;;;;4959754;28;20460;-86
2021/01/04 07:47:34;;;;;;;22.38;9.05;;;4.10;99.90;;;;;;4960309;28;20018;-84
2021/01/04 07:50:28;;;;;;;18.85;7.93;;;4.10;99.90;;;;;;4910356;28;20043;-84
2021/01/04 07:53:24;;;;;;;19.33;8.23;;;4.10;99.90;;;;;;4937423;28;20035;-83
2021/01/04 07:55:49;;;;;;;;;;;4.10;99.90;;;;;;4960478;28;20026;-84
2021/01/04 07:58:33;;;;;;;15.82;8.32;;;4.10;99.90;;;;;;4977582;28;19996;-84
2021/01/04 08:01:26;;;;;;;17.65;8.50;;;4.10;99.90;;;;;;4960416;28;20532;-84
2021/01/04 08:04:29;;;;;;;19.55;8.63;;;4.10;99.90;;;;;;4961342;28;20037;-83
2021/01/04 08:06:58;;;;;;;16.95;8.60;;;4.10;99.90;;;;;;4960251;28;20023;-84
2021/01/04 08:09:53;;;;;;;16.27;8.60;;;4.10;99.90;;;;;;4960253;28;20143;-91
2021/01/04 08:12:22;;;;;;;;;;;4.10;99.90;;;;;;4978015;28;20042;-84
2021/01/04 08:15:25;;;;;;;15.18;7.68;;;4.10;99.90;;;;;;4968959;28;19910;-83
2021/01/04 08:18:13;;;;;;;17.77;8.13;;;4.10;99.90;;;;;;4972598;28;20027;-84
2021/01/04 08:20:48;;;;;;;16.25;7.90;;;4.10;99.90;;;;;;4976006;28;20039;-84
2021/01/04 08:23:23;;;;;;;12.63;7.25;;;4.10;99.90;;;;;;4959497;28;20027;-83
2021/01/04 08:25:57;;;;;;;10.57;6.90;;;4.10;99.90;;;;;;4959226;28;20058;-83
2021/01/04 08:28:44;;;;;;;10.55;7.05;;;4.10;99.90;;;;;;4991524;28;20038;-83
2021/01/04 08:31:36;;;;;;;11.80;7.18;;;4.10;99.90;;;;;;4959358;28;20027;-85
2021/01/04 08:34:05;;;;;;;12.15;7.68;;;4.10;99.90;;;;;;4959847;28;20027;-84
2021/01/04 08:36:53;;;;;;;13.18;6.90;;;4.10;99.90;;;;;;4979413;28;20448;-83
2021/01/04 08:39:21;;;;;;;13.25;6.55;;;4.20;99.90;;;;;;4960227;28;20027;-84
2021/01/04 08:42:13;;;;;;;17.10;6.78;;;4.20;99.90;;;;;;4958815;28;20065;-85
2021/01/04 08:44:38;;;;;;;11.88;6.93;;;4.20;99.90;;;;;;4958735;28;20082;-85
2021/01/04 08:47:25;;;;;;;10.13;6.30;;;4.20;99.90;;;;;;4943057;28;20034;-84
2021/01/04 08:50:02;;;;;;;10.98;6.13;;;4.20;99.90;;;;;;4958548;28;20031;-84
2021/01/04 08:52:39;;;;;;;13.10;6.30;;;4.20;99.90;;;;;;4959043;28;20050;-87
2021/01/04 08:55:05;;;;;;;10.73;6.53;;;4.20;99.90;;;;;;4959298;28;20042;-83
2021/01/04 08:57:44;;;;;;;18.67;6.70;;;4.20;99.90;;;;;;4974700;28;20146;-86
2021/01/04 09:00:18;;;;;;;14.95;6.70;;;4.10;99.90;;;;;;4976106;28;20452;-84
2021/01/04 09:02:45;;;;;;;11.77;6.63;;;4.10;99.90;;;;;;4976006;28;20027;-86
2021/01/04 09:05:26;;;;;;;12.98;6.93;;;4.10;99.90;;;;;;4959083;28;20035;-84
2021/01/04 09:07:56;;;;;;;13.60;6.88;;;4.10;99.90;;;;;;4959469;28;20424;-86
2021/01/04 09:10:40;;;;;;;15.25;7.05;;;4.00;99.90;;;;;;4959074;28;20034;-85
2021/01/04 09:13:32;;;;;;;10.68;7.18;;;4.00;99.90;;;;;;4958575;28;20392;-85
2021/01/04 09:16:20;;;;;;;12.60;7.25;;;4.00;99.90;;;;;;4972068;28;20106;-83
2021/01/04 09:18:49;;;;;;;11.55;6.35;;;4.00;99.90;;;;;;4940034;29;20031;-85
2021/01/04 09:21:22;;;;;;;13.65;7.03;;;3.90;99.90;;;;;;4939484;29;20027;-84
2021/01/04 09:23:48;;;;;;;12.80;6.90;;;4.00;99.90;;;;;;4938694;29;20388;-83
2021/01/04 09:26:23;;;;;;;11.60;7.07;;;3.90;99.90;;;;;;4970420;28;20062;-84
2021/01/04 09:29:04;;;;;;;13.30;7.28;;;3.90;99.90;;;;;;4955841;29;20126;-84
2021/01/04 09:31:31;;;;;;;13.75;7.30;;;3.90;99.90;;;;;;4956163;29;20066;-85
2021/01/04 09:33:56;;;;;;;9.15;6.70;;;3.90;99.90;;;;;;4954438;29;20035;-83
2021/01/04 09:36:23;;;;;;;11.82;6.80;;;3.90;99.90;;;;;;4938821;29;20046;-84
2021/01/04 09:38:51;;;;;;;14.38;6.72;;;3.90;99.90;;;;;;4954517;29;20036;-85
2021/01/04 09:41:17;;;;;;;14.02;7.53;;;4.00;99.90;;;;;;4956487;29;20089;-83
2021/01/04 09:43:43;;;;;;;11.82;7.18;;;4.00;99.90;;;;;;4938453;29;20126;-83
2021/01/04 09:46:32;;;;;;;14.02;6.47;;;4.00;99.90;;;;;;4970632;28;20162;-84
2021/01/04 09:49:03;;;;;;;14.43;6.63;;;4.00;99.90;;;;;;4938262;29;20047;-85
2021/01/04 09:51:40;;;;;;;10.13;6.70;;;4.00;99.90;;;;;;4955490;29;20579;-84
2021/01/04 09:54:08;;;;;;;14.93;7.10;;;4.00;99.90;;;;;;4938284;29;20117;-84
2021/01/04 09:56:37;;;;;;;8.32;5.88;;;4.00;99.90;;;;;;4938416;29;20038;-84
2021/01/04 09:59:21;;;;;;;12.30;6.28;;;4.10;99.90;;;;;;4955517;29;20047;-85
2021/01/04 10:01:55;;;;;;;10.55;6.47;;;4.20;99.90;;;;;;4955271;29;20063;-85
2021/01/04 10:04:36;;;;;;;8.05;5.68;;;4.10;99.90;;;;;;4938890;29;20031;-85
2021/01/04 10:07:05;;;;;;;12.15;6.15;;;4.10;99.90;;;;;;4955991;29;20118;-85
2021/01/04 10:09:33;;;;;;;10.60;6.30;;;4.10;99.90;;;;;;4938639;29;20059;-84
2021/01/04 10:12:05;;;;;;;9.18;5.90;;;4.10;99.90;;;;;;4938529;29;20034;-85
2021/01/04 10:14:31;;;;;;;11.60;6.07;;;4.10;99.90;;;;;;4938694;29;20038;-84
2021/01/04 10:16:59;;;;;;;8.43;5.45;;;4.10;99.90;;;;;;4971174;28;20806;-85
2021/01/04 10:19:30;;;;;;;11.13;5.47;;;4.10;99.90;;;;;;4971080;28;20027;-85
2021/01/04 10:22:04;;;;;;;10.05;5.20;;;4.10;99.90;;;;;;4955685;29;20028;-85
2021/01/04 10:24:39;;;;;;;8.43;5.40;;;4.10;99.90;;;;;;4970575;28;20126;-83
2021/01/04 10:27:05;;;;;;;6.85;5.05;;;4.10;99.90;;;;;;4938234;29;20141;-85
2021/01/04 10:29:33;;;;;;;7.88;4.82;;;4.10;99.90;;;;;;4973562;28;20034;-85
2021/01/04 10:32:18;;;;;;;8.35;4.85;;;4.00;99.90;;;;;;4942473;29;20057;-86
2021/01/04 10:34:49;;;;;;;8.48;5.30;;;4.00;99.90;;;;;;4942213;29;20093;-85
2021/01/04 10:37:43;;;;;;;8.57;5.13;;;4.00;99.90;;;;;;4942439;29;20039;-86
2021/01/04 10:40:14;;;;;;;9.10;4.80;;;4.00;99.90;;;;;;4944261;29;20034;-84
2021/01/04 10:42:44;;;;;;;10.23;5.63;;;4.00;99.90;;;;;;4942534;29;20034;-89
2021/01/04 10:45:15;;;;;;;11.32;5.57;;;4.00;99.90;;;;;;4942550;29;20031;-85
2021/01/04 10:48:15;;;;;;;8.95;4.97;;;3.90;99.90;;;;;;4975023;28;20031;-86
2021/01/04 10:50:44;;;;;;;7.28;5.22;;;3.90;99.90;;;;;;4916030;29;20067;-89
2021/01/04 10:53:29;;;;;;;8.32;4.85;;;4.00;99.90;;;;;;4960639;29;20126;-84
2021/01/04 10:56:16;;;;;;;8.38;5.28;;;3.90;99.90;;;;;;4944460;29;20082;-83
2021/01/04 11:01:48;;;;;;;8.07;5.28;;;3.80;99.90;;;;;;4961626;29;20033;-86
2021/01/04 11:04:17;;;;;;;10.10;4.80;;;3.80;99.90;;;;;;4961163;29;20039;-84
2021/01/04 11:06:45;;;;;;;6.80;5.43;;;3.80;99.90;;;;;;4944841;29;20146;-85
2021/01/04 11:09:21;;;;;;;7.10;4.80;;;3.80;99.90;;;;;;4978290;28;20027;-83
2021/01/04 11:11:49;;;;;;;7.40;4.65;;;3.80;99.90;;;;;;4944644;29;20030;-84
2021/01/04 11:14:21;;;;;;;9.77;4.28;;;3.80;99.90;;;;;;4944354;29;20115;-82
2021/01/04 11:16:50;;;;;;;6.82;4.47;;;3.80;99.90;;;;;;4941766;29;20042;-82
2021/01/04 11:19:34;;;;;;;7.32;4.63;;;3.90;99.90;;;;;;4942520;29;20023;-82
2021/01/04 11:22:14;;;;;;;9.13;4.40;;;3.80;99.90;;;;;;4945216;29;20126;-82
2021/01/04 11:24:40;;;;;;;6.93;4.25;;;3.80;99.90;;;;;;4944243;29;20035;-83
2021/01/04 11:27:07;;;;;;;7.38;4.28;;;3.80;99.90;;;;;;4943411;29;20062;-82
2021/01/04 11:29:33;;;;;;;6.13;4.50;;;3.80;99.90;;;;;;4942303;29;20106;-82
2021/01/04 11:31:59;;;;;;;7.03;4.75;;;3.80;99.90;;;;;;4959209;29;20031;-83
2021/01/04 11:34:25;;;;;;;9.20;3.97;;;3.90;99.90;;;;;;4959764;29;20054;-85
2021/01/04 11:36:50;;;;;;;5.80;4.50;;;3.80;99.90;;;;;;4960348;29;20031;-83
2021/01/04 11:39:17;;;;;;;6.32;4.20;;;3.80;99.90;;;;;;4977057;28;20031;-83
2021/01/04 11:41:44;;;;;;;6.70;4.07;;;3.80;99.90;;;;;;4977059;28;20031;-83
2021/01/04 11:44:09;;;;;;;7.10;4.95;;;3.80;99.90;;;;;;4961811;29;20058;-83
2021/01/04 11:46:35;;;;;;;6.88;4.25;;;3.80;99.90;;;;;;4961569;29;20042;-84
2021/01/04 11:49:01;;;;;;;5.50;3.55;;;3.80;99.90;;;;;;4958648;29;20027;-84
2021/01/04 11:51:27;;;;;;;5.43;3.70;;;3.90;99.90;;;;;;4942554;29;20019;-83
2021/01/04 11:53:53;;;;;;;5.18;4.07;;;3.90;99.90;;;;;;4958579;29;20046;-83
2021/01/04 11:56:20;;;;;;;5.00;3.88;;;3.80;99.90;;;;;;4964498;29;20035;-82
2021/01/04 11:58:46;;;;;;;5.20;3.97;;;3.90;99.90;;;;;;4947986;29;20118;-83
2021/01/04 12:01:16;;;;;;;6.65;3.92;;;3.90;99.90;;;;;;4981360;28;20083;-81
2021/01/04 12:03:43;;;;;;;7.85;3.92;;;3.80;99.90;;;;;;4949078;29;20031;-83
2021/01/04 12:06:10;;;;;;;8.52;4.10;;;3.90;99.90;;;;;;4963458;29;20264;-82
2021/01/04 12:08:36;;;;;;;4.88;4.38;;;3.90;99.90;;;;;;4963610;28;20031;-82
2021/01/04 12:11:02;;;;;;;7.80;4.22;;;4.00;99.90;;;;;;4975802;28;20038;-83
2021/01/04 12:13:27;;;;;;;7.53;4.57;;;3.90;99.90;;;;;;4961863;29;20035;-82
2021/01/04 12:15:53;;;;;;;7.63;3.88;;;3.80;99.90;;;;;;4978787;28;20050;-83
2021/01/04 12:18:19;;;;;;;5.50;3.88;;;3.90;99.90;;;;;;4962644;29;20453;-83
2021/01/04 12:20:45;;;;;;;5.20;3.40;;;3.80;99.90;;;;;;4943695;29;20366;-83
2021/01/04 12:23:11;;;;;;;8.57;3.10;;;3.70;99.90;;;;;;4972950;28;20035;-83
2021/01/04 12:25:37;;;;;;;5.63;3.17;;;3.70;99.90;;;;;;4956525;29;20054;-84
2021/01/04 12:28:03;;;;;;;8.48;3.45;;;3.70;99.90;;;;;;4956900;29;20576;-84
2021/01/04 12:30:29;;;;;;;7.32;3.92;;;3.80;99.90;;;;;;4944843;29;20055;-84
2021/01/04 12:32:55;;;;;;;4.82;3.40;;;3.80;99.90;;;;;;4955673;29;20082;-84
2021/01/04 12:35:21;;;;;;;9.10;3.83;;;3.80;99.90;;;;;;4972490;28;20027;-83
2021/01/04 12:37:46;;;;;;;5.00;3.50;;;3.80;99.90;;;;;;4939985;29;20066;-84
2021/01/04 12:40:14;;;;;;;5.93;3.85;;;3.80;99.90;;;;;;4939713;29;20039;-83
2021/01/04 12:42:40;;;;;;;5.90;4.10;;;3.70;99.90;;;;;;4955628;29;20024;-82
2021/01/04 12:45:07;;;;;;;4.93;3.85;;;3.70;99.90;;;;;;4939660;29;20074;-83
2021/01/04 12:47:33;;;;;;;6.65;3.58;;;3.70;99.90;;;;;;4956846;29;20035;-83
2021/01/04 12:49:59;;;;;;;4.40;3.92;;;3.60;99.90;;;;;;4939640;29;20370;-83
2021/01/04 12:52:24;;;;;;;4.57;3.42;;;3.60;99.90;;;;;;4955987;28;20104;-82
2021/01/04 12:54:50;;;;;;;4.78;3.90;;;3.70;99.90;;;;;;4955568;29;20031;-83
2021/01/04 12:57:16;;;;;;;5.85;3.72;;;3.70;99.90;;;;;;4939518;29;20552;-82
2021/01/04 12:59:42;;;;;;;6.72;3.78;;;3.70;99.90;;;;;;4939898;29;20393;-82
2021/01/04 13:02:09;;;;;;;9.52;3.95;;;3.70;99.90;;;;;;4971399;28;20034;-82
2021/01/04 13:04:39;;;;;;;4.10;3.22;;;3.60;99.90;;;;;;4955251;29;20036;-82
2021/01/04 13:07:05;;;;;;;7.22;3.65;;;3.60;99.90;;;;;;4956523;29;20102;-82
2021/01/04 13:09:31;;;;;;;11.07;3.70;;;3.60;99.90;;;;;;4971368;28;20066;-84
2021/01/04 13:11:56;;;;;;;6.88;3.30;;;3.50;99.90;;;;;;4955943;29;20123;-85
2021/01/04 13:14:23;;;;;;;6.78;3.65;;;3.50;99.90;;;;;;4938767;29;20560;-81
2021/01/04 13:16:49;;;;;;;5.32;3.00;;;3.40;99.90;;;;;;4939188;29;20031;-82
2021/01/04 13:19:16;;;;;;;4.57;3.70;;;3.50;99.90;;;;;;4956211;29;20058;-82
2021/01/04 13:21:42;;;;;;;10.05;4.60;;;3.40;99.90;;;;;;4954729;29;20031;-82
2021/01/04 13:24:10;;;;;;;6.18;3.72;;;3.40;99.90;;;;;;4971404;28;20039;-82
2021/01/04 13:26:43;;;;;;;5.43;3.70;;;3.40;99.90;;;;;;4971668;28;20087;-83
2021/01/04 13:29:11;;;;;;;9.38;4.22;;;3.50;99.90;;;;;;4956555;29;20126;-82
2021/01/04 13:31:38;;;;;;;9.32;4.18;;;3.50;99.90;;;;;;4978632;28;20031;-83